createdAt,value
2018-04-06T00:01:52.815Z,9.70
2018-04-06T00:04:20.274Z,9.63
2018-04-06T00:06:47.752Z,9.51
2018-04-06T00:09:15.183Z,9.53
2018-04-06T00:11:42.612Z,9.51
2018-04-06T00:14:10.253Z,9.50
2018-04-06T00:16:37.646Z,9.49
2018-04-06T00:19:05.038Z,9.46
2018-04-06T00:21:32.537Z,9.42
2018-04-06T00:23:59.987Z,9.27
2018-04-06T00:26:27.398Z,9.18
2018-04-06T00:28:54.797Z,9.15
2018-04-06T00:31:22.229Z,9.15
2018-04-06T00:33:49.704Z,9.23
2018-04-06T00:36:17.128Z,9.26
2018-04-06T00:38:44.613Z,9.24
2018-04-06T00:41:12.049Z,9.30
2018-04-06T00:43:39.511Z,9.31
2018-04-06T00:46:06.951Z,9.23
2018-04-06T00:48:34.383Z,9.09
2018-04-06T00:51:01.965Z,9.05
2018-04-06T00:53:41.122Z,9.08
2018-04-06T00:56:08.586Z,9.00
2018-04-06T00:58:36.186Z,9.03
2018-04-06T01:01:03.643Z,9.09
2018-04-06T01:03:31.070Z,9.09
2018-04-06T01:05:58.531Z,9.08
2018-04-06T01:08:26.036Z,9.08
2018-04-06T01:10:53.485Z,9.04
2018-04-06T01:13:20.966Z,9.02
2018-04-06T01:15:48.417Z,8.95
2018-04-06T01:18:15.861Z,8.95
2018-04-06T01:20:43.274Z,8.92
2018-04-06T01:23:10.693Z,8.94
2018-04-06T01:25:38.131Z,8.90
2018-04-06T01:28:05.540Z,8.82
2018-04-06T01:30:33.052Z,8.82
2018-04-06T01:33:00.493Z,8.73
2018-04-06T01:35:28.042Z,8.72
2018-04-06T01:37:55.475Z,8.70
2018-04-06T01:40:22.893Z,8.66
2018-04-06T01:42:50.301Z,8.65
2018-04-06T01:45:17.707Z,8.62
2018-04-06T01:47:45.134Z,8.58
2018-04-06T01:50:12.584Z,8.59
2018-04-06T01:52:40.043Z,8.59
2018-04-06T01:55:07.520Z,8.57
2018-04-06T01:57:34.943Z,8.55
2018-04-06T02:00:02.399Z,8.54
2018-04-06T02:02:30.706Z,8.41
2018-04-06T02:04:58.321Z,8.34
2018-04-06T02:07:25.739Z,8.31
2018-04-06T02:09:53.164Z,8.24
2018-04-06T02:12:20.552Z,8.16
2018-04-06T02:14:48.022Z,8.04
2018-04-06T02:17:15.447Z,8.07
2018-04-06T02:19:43.053Z,7.94
2018-04-06T02:22:10.510Z,7.80
2018-04-06T02:24:37.945Z,7.70
2018-04-06T02:27:05.362Z,7.59
2018-04-06T02:29:33.047Z,7.62
2018-04-06T02:32:00.481Z,7.56
2018-04-06T02:34:27.907Z,7.59
2018-04-06T02:36:55.330Z,7.71
2018-04-06T02:39:22.763Z,7.76
2018-04-06T02:41:50.210Z,7.78
2018-04-06T02:44:17.674Z,7.76
2018-04-06T02:46:45.126Z,7.73
2018-04-06T02:49:12.656Z,7.60
2018-04-06T02:51:40.144Z,7.58
2018-04-06T02:54:07.566Z,7.55
2018-04-06T02:56:35.008Z,7.52
2018-04-06T02:59:02.434Z,7.55
2018-04-06T03:01:29.884Z,7.59
2018-04-06T03:03:57.330Z,7.55
2018-04-06T03:06:24.755Z,7.54
2018-04-06T03:08:52.211Z,7.42
2018-04-06T03:11:19.620Z,7.34
2018-04-06T03:13:47.088Z,7.39
2018-04-06T03:16:14.474Z,7.39
2018-04-06T03:18:41.900Z,7.37
2018-04-06T03:21:09.353Z,7.42
2018-04-06T03:23:36.736Z,7.37
2018-04-06T03:26:04.171Z,7.32
2018-04-06T03:28:32.334Z,7.30
2018-04-06T03:30:59.812Z,7.29
2018-04-06T03:33:27.208Z,7.28
2018-04-06T03:35:54.665Z,7.39
2018-04-06T03:38:22.102Z,7.37
2018-04-06T03:40:49.555Z,7.42
2018-04-06T03:43:16.993Z,7.45
2018-04-06T03:45:44.415Z,7.45
2018-04-06T03:48:11.816Z,7.49
2018-04-06T03:50:39.260Z,7.55
2018-04-06T03:53:06.743Z,7.48
2018-04-06T03:55:34.124Z,7.46
2018-04-06T03:58:01.532Z,7.45
2018-04-06T04:00:28.998Z,7.45
2018-04-06T04:02:56.396Z,7.42
2018-04-06T04:05:23.960Z,7.44
2018-04-06T04:07:51.354Z,7.40
2018-04-06T04:10:19.605Z,7.39
2018-04-06T04:12:47.029Z,7.41
2018-04-06T04:15:14.473Z,7.36
2018-04-06T04:17:41.970Z,7.35
2018-04-06T04:20:09.358Z,7.36
2018-04-06T04:22:36.759Z,7.40
2018-04-06T04:25:04.190Z,7.39
2018-04-06T04:27:32.622Z,7.35
2018-04-06T04:30:00.058Z,7.28
2018-04-06T04:32:27.537Z,7.23
2018-04-06T04:34:54.930Z,7.26
2018-04-06T04:37:22.336Z,7.29
2018-04-06T04:39:49.783Z,7.27
2018-04-06T04:42:17.284Z,7.28
2018-04-06T04:44:44.744Z,7.29
2018-04-06T04:47:12.139Z,7.22
2018-04-06T04:49:39.573Z,7.15
2018-04-06T04:52:06.988Z,7.03
2018-04-06T04:54:34.494Z,7.07
2018-04-06T04:57:02.102Z,7.14
2018-04-06T04:59:29.661Z,7.13
2018-04-06T05:01:57.071Z,7.02
2018-04-06T05:04:24.459Z,6.98
2018-04-06T05:06:51.990Z,6.98
2018-04-06T05:09:19.384Z,7.00
2018-04-06T05:11:46.826Z,6.98
2018-04-06T05:14:14.274Z,6.92
2018-04-06T05:16:41.705Z,6.97
2018-04-06T05:19:09.099Z,7.11
2018-04-06T05:21:36.496Z,7.24
2018-04-06T05:24:03.904Z,7.25
2018-04-06T05:26:31.504Z,7.27
2018-04-06T05:28:58.942Z,7.34
2018-04-06T05:31:26.937Z,7.43
2018-04-06T05:33:54.390Z,7.42
2018-04-06T05:36:21.800Z,7.46
2018-04-06T05:38:49.323Z,7.51
2018-04-06T05:41:16.758Z,7.59
2018-04-06T05:43:44.295Z,7.67
2018-04-06T05:46:11.670Z,7.72
2018-04-06T05:48:39.106Z,7.69
2018-04-06T05:51:06.884Z,7.70
2018-04-06T05:53:34.338Z,7.75
2018-04-06T05:56:01.749Z,7.91
2018-04-06T05:58:29.217Z,8.05
2018-04-06T06:00:56.655Z,8.26
2018-04-06T06:03:24.105Z,8.71
2018-04-06T06:05:51.559Z,9.30
2018-04-06T06:08:18.947Z,9.50
2018-04-06T06:10:46.430Z,9.70
2018-04-06T06:13:13.854Z,9.98
2018-04-06T06:15:41.293Z,10.30
2018-04-06T06:18:08.814Z,10.74
2018-04-06T06:20:36.278Z,11.25
2018-04-06T06:23:03.724Z,12.03
2018-04-06T06:25:31.216Z,12.81
2018-04-06T06:27:58.669Z,13.44
2018-04-06T06:30:26.112Z,13.83
2018-04-06T06:32:53.573Z,13.95
2018-04-06T06:35:21.001Z,14.19
2018-04-06T06:37:48.475Z,13.95
2018-04-06T06:40:15.961Z,13.41
2018-04-06T06:42:43.395Z,12.87
2018-04-06T06:45:10.851Z,12.68
2018-04-06T06:47:38.280Z,12.76
2018-04-06T06:50:05.721Z,12.77
2018-04-06T06:52:33.215Z,13.19
2018-04-06T06:55:00.632Z,13.60
2018-04-06T06:57:28.055Z,14.15
2018-04-06T06:59:55.498Z,14.80
2018-04-06T07:02:23.067Z,14.96
2018-04-06T07:04:50.456Z,15.25
2018-04-06T07:07:17.950Z,14.90
2018-04-06T07:09:45.393Z,14.42
2018-04-06T07:12:12.786Z,14.30
2018-04-06T07:14:40.238Z,14.50
2018-04-06T07:17:07.674Z,14.87
2018-04-06T07:19:35.109Z,14.78
2018-04-06T07:22:02.563Z,14.97
2018-04-06T07:24:30.041Z,14.99
2018-04-06T07:26:57.515Z,15.10
2018-04-06T07:29:25.008Z,15.57
2018-04-06T07:31:52.563Z,15.71
2018-04-06T07:34:19.993Z,15.57
2018-04-06T07:36:47.438Z,15.28
2018-04-06T07:39:14.868Z,15.57
2018-04-06T07:41:42.297Z,15.83
2018-04-06T07:44:09.727Z,15.78
2018-04-06T07:46:37.951Z,15.85
2018-04-06T07:49:05.394Z,16.24
2018-04-06T07:51:33.214Z,16.44
2018-04-06T07:54:00.901Z,16.19
2018-04-06T07:56:28.430Z,16.07
2018-04-06T07:58:55.904Z,16.54
2018-04-06T08:01:23.333Z,17.00
2018-04-06T08:03:50.741Z,17.37
2018-04-06T08:06:18.165Z,17.72
2018-04-06T08:08:45.730Z,17.97
2018-04-06T08:11:13.200Z,18.28
2018-04-06T08:13:40.619Z,18.30
2018-04-06T08:16:08.215Z,18.22
2018-04-06T08:18:35.817Z,18.32
2018-04-06T08:21:03.269Z,18.07
2018-04-06T08:23:30.692Z,17.95
2018-04-06T08:25:58.151Z,18.06
2018-04-06T08:28:25.594Z,17.92
2018-04-06T08:30:53.031Z,17.96
2018-04-06T08:33:20.445Z,17.88
2018-04-06T08:35:47.856Z,17.55
2018-04-06T08:38:15.316Z,18.33
2018-04-06T08:40:42.707Z,18.93
2018-04-06T08:43:10.161Z,18.73
2018-04-06T08:45:37.652Z,17.97
2018-04-06T08:48:05.986Z,17.85
2018-04-06T08:50:33.586Z,18.00
2018-04-06T08:53:01.071Z,17.79
2018-04-06T08:55:28.503Z,17.49
2018-04-06T08:57:55.895Z,17.25
2018-04-06T09:00:23.367Z,17.02
2018-04-06T09:02:50.849Z,16.71
2018-04-06T09:05:18.350Z,16.68
2018-04-06T09:07:45.823Z,16.36
2018-04-06T09:10:13.422Z,16.02
2018-04-06T09:12:40.941Z,15.94
2018-04-06T09:15:08.456Z,16.09
2018-04-06T09:17:35.864Z,15.86
2018-04-06T09:20:03.278Z,16.00
2018-04-06T09:22:31.517Z,16.26
2018-04-06T09:24:58.918Z,16.20
2018-04-06T09:27:26.430Z,16.07
2018-04-06T09:29:54.049Z,15.69
2018-04-06T09:32:22.207Z,15.48
2018-04-06T09:34:49.615Z,15.40
2018-04-06T09:37:17.064Z,15.36
2018-04-06T09:39:45.232Z,15.33
2018-04-06T09:42:12.681Z,15.51
2018-04-06T09:44:40.126Z,15.79
2018-04-06T09:47:07.545Z,16.16
2018-04-06T09:49:35.085Z,16.07
2018-04-06T09:52:02.496Z,16.32
2018-04-06T09:54:29.932Z,16.08
2018-04-06T09:56:57.404Z,16.35
2018-04-06T09:59:24.861Z,16.14
2018-04-06T10:01:56.439Z,16.17
2018-04-06T10:04:23.841Z,16.12
2018-04-06T10:06:51.227Z,16.59
2018-04-06T10:09:18.673Z,16.44
2018-04-06T10:11:46.205Z,16.37
2018-04-06T10:14:13.652Z,16.23
2018-04-06T10:16:41.096Z,16.57
2018-04-06T10:19:08.553Z,17.00
2018-04-06T10:21:36.032Z,17.38
2018-04-06T10:24:03.659Z,17.19
2018-04-06T10:26:31.114Z,17.00
2018-04-06T10:28:58.574Z,16.72
2018-04-06T10:31:26.025Z,17.02
2018-04-06T10:33:53.470Z,16.97
2018-04-06T10:36:20.919Z,17.01
2018-04-06T10:38:48.407Z,17.25
2018-04-06T10:41:15.873Z,17.16
2018-04-06T10:43:43.276Z,17.26
2018-04-06T10:46:11.643Z,17.22
2018-04-06T10:48:39.086Z,17.50
2018-04-06T10:51:06.560Z,17.25
2018-04-06T10:53:34.089Z,17.37
2018-04-06T10:56:01.557Z,17.12
2018-04-06T10:58:29.023Z,17.40
2018-04-06T11:00:56.463Z,17.87
2018-04-06T11:03:23.919Z,17.89
2018-04-06T11:05:51.381Z,17.89
2018-04-06T11:08:18.898Z,17.60
2018-04-06T11:10:46.351Z,17.53
2018-04-06T11:13:13.770Z,17.53
2018-04-06T11:15:41.325Z,17.60
2018-04-06T11:18:09.405Z,17.86
2018-04-06T11:20:36.907Z,17.89
2018-04-06T11:23:04.336Z,17.94
2018-04-06T11:25:31.744Z,17.72
2018-04-06T11:27:59.129Z,17.89
2018-04-06T11:30:26.525Z,18.02
2018-04-06T11:32:54.086Z,17.99
2018-04-06T11:35:21.568Z,17.87
2018-04-06T11:37:49.040Z,17.83
2018-04-06T11:40:16.505Z,17.88
2018-04-06T11:42:43.987Z,17.90
2018-04-06T11:45:11.458Z,17.87
2018-04-06T11:47:39.048Z,18.15
2018-04-06T11:50:06.441Z,18.18
2018-04-06T11:52:34.588Z,18.53
2018-04-06T11:55:02.078Z,18.54
2018-04-06T11:57:29.485Z,18.33
2018-04-06T11:59:56.868Z,18.15
2018-04-06T12:02:24.406Z,18.03
2018-04-06T12:04:51.852Z,18.04
2018-04-06T12:07:19.252Z,17.96
2018-04-06T12:09:46.757Z,18.00
2018-04-06T12:12:14.149Z,18.02
2018-04-06T12:14:41.629Z,18.20
2018-04-06T12:17:09.098Z,18.43
2018-04-06T12:19:36.638Z,18.48
2018-04-06T12:22:04.098Z,18.54
2018-04-06T12:24:31.570Z,18.49
2018-04-06T12:26:58.970Z,18.44
2018-04-06T12:29:26.410Z,18.47
2018-04-06T12:31:53.851Z,18.68
2018-04-06T12:34:21.352Z,18.96
2018-04-06T12:36:48.807Z,18.89
2018-04-06T12:39:16.229Z,19.44
2018-04-06T12:44:16.359Z,19.91
2018-04-06T12:46:43.791Z,19.97
2018-04-06T12:49:11.393Z,19.72
2018-04-06T12:51:38.857Z,19.65
2018-04-06T12:54:06.287Z,19.37
2018-04-06T12:56:33.676Z,19.18
2018-04-06T12:59:01.064Z,19.07
2018-04-06T13:01:28.505Z,19.10
2018-04-06T13:03:56.031Z,19.16
2018-04-06T13:06:23.496Z,19.14
2018-04-06T13:08:50.988Z,19.07
2018-04-06T13:11:18.431Z,19.15
2018-04-06T13:13:45.844Z,19.37
2018-04-06T13:16:13.355Z,19.78
2018-04-06T13:18:41.056Z,19.88
2018-04-06T13:21:08.450Z,19.62
2018-04-06T13:23:35.861Z,19.60
2018-04-06T13:26:03.408Z,19.72
2018-04-06T13:28:30.878Z,19.63
2018-04-06T13:30:58.314Z,19.51
2018-04-06T13:33:25.725Z,19.51
2018-04-06T13:35:53.286Z,19.54
2018-04-06T13:38:20.842Z,19.46
2018-04-06T13:40:48.247Z,19.39
2018-04-06T13:43:15.736Z,19.61
2018-04-06T13:45:43.341Z,19.69
2018-04-06T13:48:10.772Z,19.76
2018-04-06T13:50:38.201Z,19.87
2018-04-06T13:53:05.605Z,19.71
2018-04-06T13:55:33.161Z,19.74
2018-04-06T13:58:00.625Z,19.91
2018-04-06T14:00:28.157Z,19.98
2018-04-06T14:02:55.755Z,19.90
2018-04-06T14:05:23.142Z,20.39
2018-04-06T14:07:50.627Z,20.54
2018-04-06T14:10:18.049Z,20.22
2018-04-06T14:12:45.515Z,20.30
2018-04-06T14:15:13.049Z,20.19
2018-04-06T14:17:40.516Z,20.13
2018-04-06T14:20:08.047Z,19.99
2018-04-06T14:22:35.500Z,20.11
2018-04-06T14:25:03.167Z,20.30
2018-04-06T14:27:30.610Z,20.11
2018-04-06T14:29:58.047Z,20.05
2018-04-06T14:32:25.513Z,20.21
2018-04-06T14:34:52.988Z,20.16
2018-04-06T14:37:20.449Z,20.10
2018-04-06T14:39:47.918Z,19.96
2018-04-06T14:42:15.316Z,20.15
2018-04-06T14:44:42.999Z,20.37
2018-04-06T14:47:10.435Z,20.15
2018-04-06T14:49:37.929Z,20.29
2018-04-06T14:52:05.335Z,20.05
2018-04-06T14:54:32.739Z,19.96
2018-04-06T14:57:00.230Z,19.90
2018-04-06T14:59:27.651Z,19.88
2018-04-06T15:01:55.065Z,20.00
2018-04-06T15:04:22.549Z,20.08
2018-04-06T15:06:50.028Z,20.05
2018-04-06T15:09:17.486Z,19.95
2018-04-06T15:11:44.917Z,19.92
2018-04-06T15:14:12.353Z,19.71
2018-04-06T15:16:39.759Z,19.58
2018-04-06T15:19:07.345Z,19.56
2018-04-06T15:21:34.870Z,19.45
2018-04-06T15:24:02.435Z,19.43
2018-04-06T15:26:29.834Z,19.42
2018-04-06T15:28:57.287Z,19.36
2018-04-06T15:31:25.443Z,19.39
2018-04-06T15:33:52.946Z,19.31
2018-04-06T15:36:20.398Z,19.29
2018-04-06T15:38:47.788Z,19.18
2018-04-06T15:41:15.222Z,19.07
2018-04-06T15:43:42.649Z,19.18
2018-04-06T15:46:10.085Z,19.30
2018-04-06T15:48:37.767Z,19.31
2018-04-06T15:51:05.334Z,19.24
2018-04-06T15:53:32.759Z,19.16
2018-04-06T15:56:00.224Z,19.29
2018-04-06T15:58:28.623Z,19.70
2018-04-06T16:00:56.106Z,19.71
2018-04-06T16:03:23.544Z,19.50
2018-04-06T16:05:51.015Z,19.55
2018-04-06T16:08:18.540Z,19.55
2018-04-06T16:10:45.965Z,19.32
2018-04-06T16:13:13.368Z,19.03
2018-04-06T16:15:40.782Z,18.98
2018-04-06T16:18:08.181Z,18.98
2018-04-06T16:20:35.656Z,18.85
2018-04-06T16:23:03.122Z,18.78
2018-04-06T16:25:30.559Z,18.81
2018-04-06T16:27:57.990Z,18.86
2018-04-06T16:30:25.443Z,19.01
2018-04-06T16:32:52.867Z,19.08
2018-04-06T16:35:20.346Z,19.13
2018-04-06T16:37:48.682Z,19.07
2018-04-06T16:40:16.106Z,18.97
2018-04-06T16:42:43.606Z,18.77
2018-04-06T16:45:11.046Z,18.74
2018-04-06T16:47:38.481Z,18.62
2018-04-06T16:50:06.128Z,18.41
2018-04-06T16:52:34.293Z,18.34
2018-04-06T16:55:01.722Z,18.28
2018-04-06T16:57:29.119Z,18.22
2018-04-06T16:59:56.596Z,18.14
2018-04-06T17:02:24.000Z,17.99
2018-04-06T17:04:51.435Z,17.89
2018-04-06T17:07:18.853Z,17.82
2018-04-06T17:09:46.318Z,17.76
2018-04-06T17:12:13.739Z,17.65
2018-04-06T17:14:41.128Z,17.56
2018-04-06T17:17:08.554Z,17.54
2018-04-06T17:19:36.025Z,17.51
2018-04-06T17:22:03.683Z,17.41
2018-04-06T17:24:31.153Z,17.35
2018-04-06T17:26:58.585Z,17.34
2018-04-06T17:29:26.483Z,17.33
2018-04-06T17:31:53.927Z,17.26
2018-04-06T17:34:21.726Z,17.21
2018-04-06T17:36:49.152Z,17.24
2018-04-06T17:39:16.605Z,17.23
2018-04-06T17:41:44.044Z,17.16
2018-04-06T17:44:11.504Z,17.08
2018-04-06T17:46:39.666Z,17.06
2018-04-06T17:49:07.111Z,17.01
2018-04-06T17:51:34.675Z,16.90
2018-04-06T17:54:02.146Z,16.75
2018-04-06T17:56:29.598Z,16.68
2018-04-06T17:58:57.222Z,16.64
2018-04-06T18:01:24.877Z,16.59
2018-04-06T18:03:52.301Z,16.56
2018-04-06T18:06:19.877Z,16.50
2018-04-06T18:08:47.567Z,16.52
2018-04-06T18:11:14.965Z,16.39
2018-04-06T18:13:42.388Z,16.19
2018-04-06T18:16:09.813Z,16.11
2018-04-06T18:18:37.220Z,16.05
2018-04-06T18:21:04.683Z,15.94
2018-04-06T18:23:32.057Z,15.85
2018-04-06T18:25:59.559Z,15.78
2018-04-06T18:28:27.063Z,15.72
2018-04-06T18:30:54.479Z,15.62
2018-04-06T18:33:21.965Z,15.62
2018-04-06T18:35:49.484Z,15.61
2018-04-06T18:38:16.954Z,15.59
2018-04-06T18:40:44.395Z,15.53
2018-04-06T18:43:11.856Z,15.51
2018-04-06T18:45:39.333Z,15.49
2018-04-06T18:48:06.810Z,15.46
2018-04-06T18:50:34.303Z,15.42
2018-04-06T18:53:01.972Z,15.40
2018-04-06T18:55:29.399Z,15.39
2018-04-06T18:57:56.970Z,15.39
2018-04-06T19:00:24.429Z,15.37
2018-04-06T19:02:52.015Z,15.33
2018-04-06T19:05:19.465Z,15.32
2018-04-06T19:07:46.913Z,15.25
2018-04-06T19:10:14.397Z,15.23
2018-04-06T19:12:41.840Z,15.16
2018-04-06T19:15:09.236Z,15.14
2018-04-06T19:17:36.665Z,15.11
2018-04-06T19:20:04.117Z,15.14
2018-04-06T19:22:31.594Z,15.15
2018-04-06T19:24:59.100Z,15.06
2018-04-06T19:27:26.646Z,14.98
2018-04-06T19:29:54.085Z,14.88
2018-04-06T19:32:21.555Z,14.77
2018-04-06T19:34:49.163Z,14.60
2018-04-06T19:37:16.577Z,14.49
2018-04-06T19:39:44.050Z,14.48
2018-04-06T19:42:11.585Z,14.48
2018-04-06T19:44:39.262Z,14.51
2018-04-06T19:47:06.656Z,14.56
2018-04-06T19:49:34.273Z,14.59
2018-04-06T19:52:04.829Z,14.59
2018-04-06T19:54:32.267Z,14.61
2018-04-06T19:56:59.745Z,14.62
2018-04-06T19:59:27.180Z,14.60
2018-04-06T20:01:54.702Z,14.53
2018-04-06T20:04:22.285Z,14.46
2018-04-06T20:06:49.769Z,14.41
2018-04-06T20:09:17.245Z,14.38
2018-04-06T20:11:44.664Z,14.33
2018-04-06T20:14:12.155Z,14.25
2018-04-06T20:16:39.723Z,14.23
2018-04-06T20:19:07.853Z,14.19
2018-04-06T20:21:35.264Z,14.13
2018-04-06T20:24:02.811Z,14.08
2018-04-06T20:26:30.356Z,13.98
2018-04-06T20:28:57.826Z,13.92
2018-04-06T20:31:25.310Z,13.85
2018-04-06T20:33:53.309Z,13.78
2018-04-06T20:36:20.728Z,13.76
2018-04-06T20:38:48.201Z,13.72
2018-04-06T20:41:15.623Z,13.64
2018-04-06T20:43:43.040Z,13.62
2018-04-06T20:46:10.639Z,13.64
2018-04-06T20:48:38.089Z,13.64
2018-04-06T20:51:05.556Z,13.65
2018-04-06T20:53:33.094Z,13.60
2018-04-06T20:56:00.542Z,13.55
2018-04-06T20:58:27.978Z,13.45
2018-04-06T21:00:55.394Z,13.41
2018-04-06T21:03:22.871Z,13.36
2018-04-06T21:05:50.352Z,13.29
2018-04-06T21:08:17.760Z,13.24
2018-04-06T21:10:45.228Z,13.27
2018-04-06T21:13:12.705Z,13.28
2018-04-06T21:15:40.163Z,13.21
2018-04-06T21:18:07.649Z,13.14
2018-04-06T21:20:35.152Z,13.10
2018-04-06T21:23:02.567Z,13.01
2018-04-06T21:25:30.070Z,12.98
2018-04-06T21:27:57.456Z,12.97
2018-04-06T21:30:24.902Z,12.95
2018-04-06T21:32:52.382Z,12.98
2018-04-06T21:35:19.791Z,12.91
2018-04-06T21:37:47.230Z,12.89
2018-04-06T21:40:14.616Z,12.88
2018-04-06T21:42:42.154Z,12.81
2018-04-06T21:45:09.620Z,12.75
2018-04-06T21:47:37.065Z,12.72
2018-04-06T21:50:04.766Z,12.71
2018-04-06T21:52:32.770Z,12.66
2018-04-06T21:55:00.195Z,12.61
2018-04-06T21:57:27.620Z,12.59
2018-04-06T21:59:55.107Z,12.57
2018-04-06T22:02:22.537Z,12.55
2018-04-06T22:04:49.976Z,12.50
2018-04-06T22:07:17.507Z,12.51
2018-04-06T22:09:44.930Z,12.53
2018-04-06T22:12:12.407Z,12.54
2018-04-06T22:14:39.832Z,12.54
2018-04-06T22:17:07.239Z,12.52
2018-04-06T22:19:34.863Z,12.48
2018-04-06T22:22:02.301Z,12.44
2018-04-06T22:24:30.553Z,12.38
2018-04-06T22:26:58.040Z,12.35
2018-04-06T22:29:25.499Z,12.27
2018-04-06T22:31:52.888Z,12.26
2018-04-06T22:34:20.435Z,12.21
2018-04-06T22:36:47.945Z,12.16
2018-04-06T22:39:15.348Z,12.13
2018-04-06T22:41:42.809Z,12.08
2018-04-06T22:44:10.245Z,12.05
2018-04-06T22:46:37.720Z,12.02
2018-04-06T22:49:05.953Z,12.03
2018-04-06T22:51:33.431Z,11.98
2018-04-06T22:54:00.900Z,11.94
2018-04-06T22:56:28.313Z,11.95
2018-04-06T22:58:55.746Z,11.93
2018-04-06T23:01:23.659Z,11.93
2018-04-06T23:03:51.130Z,11.89
2018-04-06T23:06:18.554Z,11.87
2018-04-06T23:08:46.020Z,11.81
2018-04-06T23:11:13.460Z,11.73
2018-04-06T23:13:40.864Z,11.67
2018-04-06T23:16:08.379Z,11.61
2018-04-06T23:18:35.881Z,11.58
2018-04-06T23:21:03.320Z,11.54
2018-04-06T23:23:30.784Z,11.52
2018-04-06T23:25:58.246Z,11.50
2018-04-06T23:28:25.758Z,11.48
2018-04-06T23:30:53.194Z,11.49
2018-04-06T23:33:20.703Z,11.46
2018-04-06T23:35:48.178Z,11.43
2018-04-06T23:38:15.746Z,11.34
2018-04-06T23:40:43.359Z,11.31
2018-04-06T23:43:10.774Z,11.33
2018-04-06T23:45:38.654Z,11.36
2018-04-06T23:48:06.102Z,11.29
2018-04-06T23:50:33.578Z,11.23
2018-04-06T23:53:00.982Z,11.22
2018-04-06T23:55:28.536Z,11.20
2018-04-06T23:57:55.970Z,11.21
